sensor_id;sensor_type;location;lat;lon;timestamp;pressure;altitude;pressure_sealevel;temperature;humidity
58668;BME280;59852;43.086;25.634;2022-07-10T00:00:51;98532.75;;;19.47;70.06
58668;BME280;59852;43.086;25.634;2022-07-10T00:03:18;98535.06;;;19.51;69.79
58668;BME280;59852;43.086;25.634;2022-07-10T00:05:44;98543.69;;;19.44;70.25
58668;BME280;59852;43.086;25.634;2022-07-10T00:08:09;98538.25;;;19.38;70.40
58668;BME280;59852;43.086;25.634;2022-07-10T00:10:34;98530.59;;;19.43;70.90
58668;BME280;59852;43.086;25.634;2022-07-10T00:13:01;98534.25;;;19.42;70.70
58668;BME280;59852;43.086;25.634;2022-07-10T00:15:26;98537.25;;;19.39;70.67
58668;BME280;59852;43.086;25.634;2022-07-10T00:17:52;98545.69;;;19.51;70.41
58668;BME280;59852;43.086;25.634;2022-07-10T00:20:17;98541.88;;;19.37;70.68
58668;BME280;59852;43.086;25.634;2022-07-10T00:22:43;98544.34;;;19.46;70.48
58668;BME280;59852;43.086;25.634;2022-07-10T00:25:11;98541.88;;;19.45;70.29
58668;BME280;59852;43.086;25.634;2022-07-10T00:27:37;98549.19;;;19.27;70.98
58668;BME280;59852;43.086;25.634;2022-07-10T00:30:03;98544.41;;;19.38;70.27
58668;BME280;59852;43.086;25.634;2022-07-10T00:32:28;98549.72;;;19.22;71.18
58668;BME280;59852;43.086;25.634;2022-07-10T00:34:53;98553.19;;;19.31;70.22
58668;BME280;59852;43.086;25.634;2022-07-10T00:37:19;98540.41;;;19.34;69.90
58668;BME280;59852;43.086;25.634;2022-07-10T00:39:46;98543.44;;;19.07;70.81
58668;BME280;59852;43.086;25.634;2022-07-10T00:42:12;98541.13;;;19.20;70.96
58668;BME280;59852;43.086;25.634;2022-07-10T00:44:38;98551.38;;;19.23;70.64
58668;BME280;59852;43.086;25.634;2022-07-10T00:47:04;98545.25;;;19.14;70.98
58668;BME280;59852;43.086;25.634;2022-07-10T00:49:30;98538.94;;;19.24;70.76
58668;BME280;59852;43.086;25.634;2022-07-10T00:51:56;98541.13;;;18.96;71.37
58668;BME280;59852;43.086;25.634;2022-07-10T00:54:22;98543.63;;;18.65;72.59
58668;BME280;59852;43.086;25.634;2022-07-10T00:56:48;98542.81;;;18.80;72.23
58668;BME280;59852;43.086;25.634;2022-07-10T00:59:13;98540.19;;;18.80;72.03
58668;BME280;59852;43.086;25.634;2022-07-10T01:01:39;98543.94;;;19.10;71.72
58668;BME280;59852;43.086;25.634;2022-07-10T01:04:04;98535.00;;;18.87;71.66
58668;BME280;59852;43.086;25.634;2022-07-10T01:06:29;98535.69;;;18.73;72.76
58668;BME280;59852;43.086;25.634;2022-07-10T01:08:55;98531.69;;;19.01;72.21
58668;BME280;59852;43.086;25.634;2022-07-10T01:11:20;98530.72;;;18.78;72.46
58668;BME280;59852;43.086;25.634;2022-07-10T01:13:46;98523.94;;;18.83;72.10
58668;BME280;59852;43.086;25.634;2022-07-10T01:16:12;98538.19;;;18.90;71.79
58668;BME280;59852;43.086;25.634;2022-07-10T01:18:37;98533.06;;;18.81;72.06
58668;BME280;59852;43.086;25.634;2022-07-10T01:21:03;98536.19;;;18.84;72.86
58668;BME280;59852;43.086;25.634;2022-07-10T01:23:28;98526.56;;;19.08;71.95
58668;BME280;59852;43.086;25.634;2022-07-10T01:25:53;98522.63;;;18.79;71.85
58668;BME280;59852;43.086;25.634;2022-07-10T01:28:19;98516.97;;;18.90;71.98
58668;BME280;59852;43.086;25.634;2022-07-10T01:30:45;98520.16;;;18.70;72.26
58668;BME280;59852;43.086;25.634;2022-07-10T01:33:11;98518.28;;;18.62;72.06
58668;BME280;59852;43.086;25.634;2022-07-10T01:35:36;98519.63;;;18.50;72.84
58668;BME280;59852;43.086;25.634;2022-07-10T01:38:02;98520.75;;;18.47;72.34
58668;BME280;59852;43.086;25.634;2022-07-10T01:40:27;98515.81;;;18.52;72.18
58668;BME280;59852;43.086;25.634;2022-07-10T01:42:52;98518.28;;;18.46;72.71
58668;BME280;59852;43.086;25.634;2022-07-10T01:45:18;98509.81;;;18.26;72.98
58668;BME280;59852;43.086;25.634;2022-07-10T01:47:43;98510.97;;;18.15;74.02
58668;BME280;59852;43.086;25.634;2022-07-10T01:50:09;98513.31;;;18.43;72.99
58668;BME280;59852;43.086;25.634;2022-07-10T01:52:34;98519.75;;;18.56;72.41
58668;BME280;59852;43.086;25.634;2022-07-10T01:54:59;98513.16;;;18.77;71.75
58668;BME280;59852;43.086;25.634;2022-07-10T01:57:25;98511.13;;;18.38;72.46
58668;BME280;59852;43.086;25.634;2022-07-10T01:59:50;98499.72;;;18.46;71.89
58668;BME280;59852;43.086;25.634;2022-07-10T02:02:15;98503.53;;;18.11;73.47
58668;BME280;59852;43.086;25.634;2022-07-10T02:04:41;98503.03;;;18.15;73.63
58668;BME280;59852;43.086;25.634;2022-07-10T02:07:13;98502.31;;;17.97;74.39
58668;BME280;59852;43.086;25.634;2022-07-10T02:09:39;98504.66;;;18.00;74.24
58668;BME280;59852;43.086;25.634;2022-07-10T02:12:05;98495.94;;;18.40;73.21
58668;BME280;59852;43.086;25.634;2022-07-10T02:14:31;98493.28;;;18.24;73.27
58668;BME280;59852;43.086;25.634;2022-07-10T02:16:56;98493.06;;;18.09;73.96
58668;BME280;59852;43.086;25.634;2022-07-10T02:19:22;98498.16;;;17.86;74.52
58668;BME280;59852;43.086;25.634;2022-07-10T02:21:47;98497.91;;;18.22;73.58
58668;BME280;59852;43.086;25.634;2022-07-10T02:24:13;98496.06;;;18.14;73.22
58668;BME280;59852;43.086;25.634;2022-07-10T02:26:38;98488.47;;;18.27;73.37
58668;BME280;59852;43.086;25.634;2022-07-10T02:29:03;98486.19;;;18.41;72.53
58668;BME280;59852;43.086;25.634;2022-07-10T02:31:29;98490.97;;;18.37;72.89
58668;BME280;59852;43.086;25.634;2022-07-10T02:33:54;98499.88;;;18.12;72.59
58668;BME280;59852;43.086;25.634;2022-07-10T02:36:19;98499.19;;;17.93;73.30
58668;BME280;59852;43.086;25.634;2022-07-10T02:38:45;98499.47;;;17.82;74.18
58668;BME280;59852;43.086;25.634;2022-07-10T02:41:10;98492.09;;;18.02;74.09
58668;BME280;59852;43.086;25.634;2022-07-10T02:43:36;98499.72;;;18.13;73.52
58668;BME280;59852;43.086;25.634;2022-07-10T02:46:01;98501.66;;;17.95;73.75
58668;BME280;59852;43.086;25.634;2022-07-10T02:48:27;98499.19;;;18.01;73.94
58668;BME280;59852;43.086;25.634;2022-07-10T02:50:52;98494.72;;;17.94;73.64
58668;BME280;59852;43.086;25.634;2022-07-10T02:53:18;98499.06;;;18.19;73.28
58668;BME280;59852;43.086;25.634;2022-07-10T02:55:43;98501.78;;;17.77;73.90
58668;BME280;59852;43.086;25.634;2022-07-10T02:58:09;98495.69;;;17.85;74.86
58668;BME280;59852;43.086;25.634;2022-07-10T03:00:35;98494.63;;;17.69;74.88
58668;BME280;59852;43.086;25.634;2022-07-10T03:03:00;98496.03;;;17.98;74.26
58668;BME280;59852;43.086;25.634;2022-07-10T03:05:25;98497.03;;;17.97;74.51
58668;BME280;59852;43.086;25.634;2022-07-10T03:07:51;98501.19;;;18.08;73.63
58668;BME280;59852;43.086;25.634;2022-07-10T03:10:16;98505.19;;;18.20;73.24
58668;BME280;59852;43.086;25.634;2022-07-10T03:12:42;98500.72;;;18.20;72.88
58668;BME280;59852;43.086;25.634;2022-07-10T03:15:07;98493.84;;;17.85;73.95
58668;BME280;59852;43.086;25.634;2022-07-10T03:17:33;98499.31;;;17.84;74.50
58668;BME280;59852;43.086;25.634;2022-07-10T03:19:59;98503.66;;;18.09;73.67
58668;BME280;59852;43.086;25.634;2022-07-10T03:22:24;98503.03;;;18.23;73.03
58668;BME280;59852;43.086;25.634;2022-07-10T03:24:49;98506.09;;;17.86;74.21
58668;BME280;59852;43.086;25.634;2022-07-10T03:27:15;98508.97;;;18.17;73.59
58668;BME280;59852;43.086;25.634;2022-07-10T03:29:40;98504.84;;;18.23;73.37
58668;BME280;59852;43.086;25.634;2022-07-10T03:32:06;98501.88;;;18.10;73.62
58668;BME280;59852;43.086;25.634;2022-07-10T03:34:31;98501.19;;;18.16;73.67
58668;BME280;59852;43.086;25.634;2022-07-10T03:36:59;98499.91;;;18.20;73.90
58668;BME280;59852;43.086;25.634;2022-07-10T03:39:24;98493.28;;;18.48;72.91
58668;BME280;59852;43.086;25.634;2022-07-10T03:41:49;98494.28;;;18.39;72.95
58668;BME280;59852;43.086;25.634;2022-07-10T03:44:15;98493.94;;;18.26;73.92
58668;BME280;59852;43.086;25.634;2022-07-10T03:46:40;98484.53;;;18.40;73.11
58668;BME280;59852;43.086;25.634;2022-07-10T03:49:05;98494.44;;;18.54;73.18
58668;BME280;59852;43.086;25.634;2022-07-10T03:51:30;98493.06;;;18.09;74.34
58668;BME280;59852;43.086;25.634;2022-07-10T03:53:56;98488.31;;;18.37;73.14
58668;BME280;59852;43.086;25.634;2022-07-10T03:56:21;98490.50;;;18.66;72.69
58668;BME280;59852;43.086;25.634;2022-07-10T03:59:05;98485.66;;;18.86;71.88
58668;BME280;59852;43.086;25.634;2022-07-10T04:01:30;98482.53;;;18.42;72.65
58668;BME280;59852;43.086;25.634;2022-07-10T04:03:55;98486.66;;;18.52;72.71
58668;BME280;59852;43.086;25.634;2022-07-10T04:06:21;98491.13;;;18.76;72.36
58668;BME280;59852;43.086;25.634;2022-07-10T04:08:46;98483.66;;;19.04;71.45
58668;BME280;59852;43.086;25.634;2022-07-10T04:11:11;98482.31;;;19.08;71.08
58668;BME280;59852;43.086;25.634;2022-07-10T04:13:37;98481.00;;;19.04;71.50
58668;BME280;59852;43.086;25.634;2022-07-10T04:16:02;98485.00;;;18.92;71.43
58668;BME280;59852;43.086;25.634;2022-07-10T04:18:28;98489.09;;;19.11;71.28
58668;BME280;59852;43.086;25.634;2022-07-10T04:20:53;98489.84;;;19.36;70.67
58668;BME280;59852;43.086;25.634;2022-07-10T04:23:18;98495.59;;;18.92;71.88
58668;BME280;59852;43.086;25.634;2022-07-10T04:25:44;98495.34;;;19.26;70.31
58668;BME280;59852;43.086;25.634;2022-07-10T04:28:09;98500.44;;;18.80;70.62
58668;BME280;59852;43.086;25.634;2022-07-10T04:30:34;98503.53;;;19.00;72.33
58668;BME280;59852;43.086;25.634;2022-07-10T04:33:00;98500.97;;;19.31;71.20
58668;BME280;59852;43.086;25.634;2022-07-10T04:35:25;98513.38;;;19.39;70.56
58668;BME280;59852;43.086;25.634;2022-07-10T04:37:50;98500.09;;;19.47;70.07
58668;BME280;59852;43.086;25.634;2022-07-10T04:40:16;98507.50;;;19.12;71.72
58668;BME280;59852;43.086;25.634;2022-07-10T04:42:41;98500.19;;;19.14;71.60
58668;BME280;59852;43.086;25.634;2022-07-10T04:45:07;98501.38;;;19.04;73.67
58668;BME280;59852;43.086;25.634;2022-07-10T04:47:32;98502.44;;;18.70;74.24
58668;BME280;59852;43.086;25.634;2022-07-10T04:49:57;98509.50;;;18.86;73.02
58668;BME280;59852;43.086;25.634;2022-07-10T04:52:23;98506.38;;;18.82;72.95
58668;BME280;59852;43.086;25.634;2022-07-10T04:54:48;98503.19;;;19.11;71.40
58668;BME280;59852;43.086;25.634;2022-07-10T04:57:13;98496.78;;;18.98;71.28
58668;BME280;59852;43.086;25.634;2022-07-10T04:59:39;98498.06;;;19.10;70.68
58668;BME280;59852;43.086;25.634;2022-07-10T05:02:04;98501.53;;;19.10;71.76
58668;BME280;59852;43.086;25.634;2022-07-10T05:04:29;98495.59;;;19.08;70.77
58668;BME280;59852;43.086;25.634;2022-07-10T05:06:55;98496.47;;;19.87;68.63
58668;BME280;59852;43.086;25.634;2022-07-10T05:09:20;98494.69;;;20.02;68.19
58668;BME280;59852;43.086;25.634;2022-07-10T05:11:45;98497.19;;;20.04;66.38
58668;BME280;59852;43.086;25.634;2022-07-10T05:14:11;98494.91;;;19.62;68.02
58668;BME280;59852;43.086;25.634;2022-07-10T05:16:37;98499.78;;;19.89;67.23
58668;BME280;59852;43.086;25.634;2022-07-10T05:19:02;98507.84;;;20.27;66.38
58668;BME280;59852;43.086;25.634;2022-07-10T05:21:27;98501.47;;;20.59;65.55
58668;BME280;59852;43.086;25.634;2022-07-10T05:23:53;98491.28;;;20.48;65.11
58668;BME280;59852;43.086;25.634;2022-07-10T05:26:18;98499.03;;;20.72;64.92
58668;BME280;59852;43.086;25.634;2022-07-10T05:28:43;98486.59;;;21.02;63.81
58668;BME280;59852;43.086;25.634;2022-07-10T05:31:09;98485.88;;;21.08;63.67
58668;BME280;59852;43.086;25.634;2022-07-10T05:33:34;98492.34;;;21.29;63.23
58668;BME280;59852;43.086;25.634;2022-07-10T05:35:59;98491.44;;;21.36;62.72
58668;BME280;59852;43.086;25.634;2022-07-10T05:38:25;98492.94;;;21.01;62.82
58668;BME280;59852;43.086;25.634;2022-07-10T05:40:50;98497.56;;;20.70;64.30
58668;BME280;59852;43.086;25.634;2022-07-10T05:43:18;98504.31;;;20.95;63.99
58668;BME280;59852;43.086;25.634;2022-07-10T05:45:43;98496.22;;;21.03;62.45
58668;BME280;59852;43.086;25.634;2022-07-10T05:48:08;98496.91;;;21.05;63.04
58668;BME280;59852;43.086;25.634;2022-07-10T05:50:34;98482.72;;;21.28;62.18
58668;BME280;59852;43.086;25.634;2022-07-10T05:52:59;98482.25;;;21.39;61.31
58668;BME280;59852;43.086;25.634;2022-07-10T05:55:24;98487.72;;;21.52;61.01
58668;BME280;59852;43.086;25.634;2022-07-10T05:57:50;98492.41;;;21.65;60.72
58668;BME280;59852;43.086;25.634;2022-07-10T06:00:19;98484.25;;;21.52;60.99
58668;BME280;59852;43.086;25.634;2022-07-10T06:02:45;98482.78;;;21.19;62.03
58668;BME280;59852;43.086;25.634;2022-07-10T06:05:10;98492.03;;;21.24;59.98
58668;BME280;59852;43.086;25.634;2022-07-10T06:07:36;98489.59;;;21.37;58.04
58668;BME280;59852;43.086;25.634;2022-07-10T06:10:02;98488.47;;;21.16;57.35
58668;BME280;59852;43.086;25.634;2022-07-10T06:12:28;98489.75;;;21.20;58.06
58668;BME280;59852;43.086;25.634;2022-07-10T06:14:53;98491.03;;;21.25;58.46
58668;BME280;59852;43.086;25.634;2022-07-10T06:17:18;98490.19;;;21.68;57.65
58668;BME280;59852;43.086;25.634;2022-07-10T06:19:44;98484.63;;;21.63;57.43
58668;BME280;59852;43.086;25.634;2022-07-10T06:22:09;98495.53;;;21.68;55.90
58668;BME280;59852;43.086;25.634;2022-07-10T06:24:53;98490.88;;;21.41;53.84
58668;BME280;59852;43.086;25.634;2022-07-10T06:27:18;98495.75;;;21.37;55.87
58668;BME280;59852;43.086;25.634;2022-07-10T06:29:44;98490.69;;;21.57;54.62
58668;BME280;59852;43.086;25.634;2022-07-10T06:32:09;98486.50;;;21.84;54.60
58668;BME280;59852;43.086;25.634;2022-07-10T06:34:34;98484.00;;;21.83;55.02
58668;BME280;59852;43.086;25.634;2022-07-10T06:37:00;98488.72;;;22.02;54.25
58668;BME280;59852;43.086;25.634;2022-07-10T06:39:25;98478.53;;;22.05;53.87
58668;BME280;59852;43.086;25.634;2022-07-10T06:41:51;98484.69;;;22.06;52.92
58668;BME280;59852;43.086;25.634;2022-07-10T06:44:16;98476.53;;;21.57;52.85
58668;BME280;59852;43.086;25.634;2022-07-10T06:46:41;98476.81;;;21.62;55.62
58668;BME280;59852;43.086;25.634;2022-07-10T06:49:07;98472.94;;;22.15;54.30
58668;BME280;59852;43.086;25.634;2022-07-10T06:51:34;98473.25;;;22.27;54.18
58668;BME280;59852;43.086;25.634;2022-07-10T06:53:59;98471.69;;;21.96;53.46
58668;BME280;59852;43.086;25.634;2022-07-10T06:56:24;98473.78;;;21.50;54.26
58668;BME280;59852;43.086;25.634;2022-07-10T06:58:50;98471.41;;;21.40;53.88
58668;BME280;59852;43.086;25.634;2022-07-10T07:01:15;98463.13;;;22.01;54.11
58668;BME280;59852;43.086;25.634;2022-07-10T07:03:40;98461.44;;;22.36;51.88
58668;BME280;59852;43.086;25.634;2022-07-10T07:06:06;98467.38;;;22.59;51.83
58668;BME280;59852;43.086;25.634;2022-07-10T07:08:31;98472.94;;;22.00;52.77
58668;BME280;59852;43.086;25.634;2022-07-10T07:10:57;98472.22;;;22.49;51.97
58668;BME280;59852;43.086;25.634;2022-07-10T07:13:22;98475.28;;;22.25;50.31
58668;BME280;59852;43.086;25.634;2022-07-10T07:15:48;98478.84;;;22.32;51.93
58668;BME280;59852;43.086;25.634;2022-07-10T07:18:23;98462.63;;;22.55;50.81
58668;BME280;59852;43.086;25.634;2022-07-10T07:20:57;98467.31;;;22.74;50.88
58668;BME280;59852;43.086;25.634;2022-07-10T07:23:40;98460.16;;;23.03;51.93
58668;BME280;59852;43.086;25.634;2022-07-10T07:26:05;98461.41;;;23.07;50.25
58668;BME280;59852;43.086;25.634;2022-07-10T07:28:31;98468.50;;;22.93;49.95
58668;BME280;59852;43.086;25.634;2022-07-10T07:30:56;98473.72;;;22.58;51.30
58668;BME280;59852;43.086;25.634;2022-07-10T07:33:24;98473.44;;;22.25;52.08
58668;BME280;59852;43.086;25.634;2022-07-10T07:35:49;98477.34;;;22.51;51.92
58668;BME280;59852;43.086;25.634;2022-07-10T07:38:15;98468.81;;;22.34;52.47
58668;BME280;59852;43.086;25.634;2022-07-10T07:40:41;98464.63;;;22.46;52.17
58668;BME280;59852;43.086;25.634;2022-07-10T07:43:06;98465.75;;;22.37;52.13
58668;BME280;59852;43.086;25.634;2022-07-10T07:45:31;98465.00;;;22.43;53.06
58668;BME280;59852;43.086;25.634;2022-07-10T07:47:57;98468.41;;;22.58;51.57
58668;BME280;59852;43.086;25.634;2022-07-10T07:50:34;98470.56;;;22.98;50.97
58668;BME280;59852;43.086;25.634;2022-07-10T07:53:00;98460.69;;;22.70;51.71
58668;BME280;59852;43.086;25.634;2022-07-10T07:55:26;98473.00;;;22.93;51.18
58668;BME280;59852;43.086;25.634;2022-07-10T07:57:52;98476.56;;;22.78;51.56
58668;BME280;59852;43.086;25.634;2022-07-10T08:00:18;98465.63;;;22.45;54.07
58668;BME280;59852;43.086;25.634;2022-07-10T08:02:44;98467.84;;;22.42;55.77
58668;BME280;59852;43.086;25.634;2022-07-10T08:05:10;98468.31;;;22.45;55.15
58668;BME280;59852;43.086;25.634;2022-07-10T08:07:39;98468.41;;;22.58;55.16
58668;BME280;59852;43.086;25.634;2022-07-10T08:10:07;98460.94;;;22.26;55.74
58668;BME280;59852;43.086;25.634;2022-07-10T08:12:33;98460.31;;;22.24;55.36
58668;BME280;59852;43.086;25.634;2022-07-10T08:14:58;98463.31;;;22.14;56.19
58668;BME280;59852;43.086;25.634;2022-07-10T08:17:24;98464.56;;;22.18;55.24
58668;BME280;59852;43.086;25.634;2022-07-10T08:19:50;98453.38;;;22.79;54.23
58668;BME280;59852;43.086;25.634;2022-07-10T08:22:15;98452.38;;;23.08;53.48
58668;BME280;59852;43.086;25.634;2022-07-10T08:24:41;98452.06;;;23.24;54.12
58668;BME280;59852;43.086;25.634;2022-07-10T08:27:06;98452.69;;;22.70;52.53
58668;BME280;59852;43.086;25.634;2022-07-10T08:29:32;98460.28;;;22.67;52.42
58668;BME280;59852;43.086;25.634;2022-07-10T08:31:58;98465.25;;;22.76;52.46
58668;BME280;59852;43.086;25.634;2022-07-10T08:34:23;98460.47;;;23.21;51.19
58668;BME280;59852;43.086;25.634;2022-07-10T08:36:49;98454.88;;;23.57;50.35
58668;BME280;59852;43.086;25.634;2022-07-10T08:39:14;98449.91;;;23.47;50.07
58668;BME280;59852;43.086;25.634;2022-07-10T08:41:41;98450.56;;;23.56;50.19
58668;BME280;59852;43.086;25.634;2022-07-10T08:44:07;98451.09;;;23.38;52.21
58668;BME280;59852;43.086;25.634;2022-07-10T08:46:33;98455.72;;;23.16;50.60
58668;BME280;59852;43.086;25.634;2022-07-10T08:49:00;98453.19;;;23.02;52.31
58668;BME280;59852;43.086;25.634;2022-07-10T08:51:36;98462.53;;;22.70;50.75
58668;BME280;59852;43.086;25.634;2022-07-10T08:54:03;98468.03;;;22.89;50.44
58668;BME280;59852;43.086;25.634;2022-07-10T08:56:29;98456.47;;;23.04;50.52
58668;BME280;59852;43.086;25.634;2022-07-10T08:58:54;98458.31;;;23.03;49.56
58668;BME280;59852;43.086;25.634;2022-07-10T09:01:20;98458.69;;;23.00;49.97
58668;BME280;59852;43.086;25.634;2022-07-10T09:03:48;98457.91;;;23.06;49.62
58668;BME280;59852;43.086;25.634;2022-07-10T09:06:13;98456.13;;;23.20;49.57
58668;BME280;59852;43.086;25.634;2022-07-10T09:08:44;98450.63;;;23.28;49.72
58668;BME280;59852;43.086;25.634;2022-07-10T09:11:22;98450.38;;;23.58;50.41
58668;BME280;59852;43.086;25.634;2022-07-10T09:13:52;98452.94;;;23.38;49.42
58668;BME280;59852;43.086;25.634;2022-07-10T09:16:25;98457.19;;;23.26;50.08
58668;BME280;59852;43.086;25.634;2022-07-10T09:18:52;98459.03;;;22.90;51.91
58668;BME280;59852;43.086;25.634;2022-07-10T09:21:17;98463.53;;;22.90;54.04
58668;BME280;59852;43.086;25.634;2022-07-10T09:23:43;98456.41;;;22.97;54.33
58668;BME280;59852;43.086;25.634;2022-07-10T09:26:08;98461.34;;;22.72;55.10
58668;BME280;59852;43.086;25.634;2022-07-10T09:28:33;98459.53;;;22.79;56.15
58668;BME280;59852;43.086;25.634;2022-07-10T09:30:59;98452.97;;;22.75;56.48
58668;BME280;59852;43.086;25.634;2022-07-10T09:33:25;98465.97;;;22.85;55.76
58668;BME280;59852;43.086;25.634;2022-07-10T09:41:15;98460.88;;;22.62;55.65
58668;BME280;59852;43.086;25.634;2022-07-10T09:43:44;98459.34;;;22.81;55.93
58668;BME280;59852;43.086;25.634;2022-07-10T09:46:11;98455.47;;;22.83;54.67
58668;BME280;59852;43.086;25.634;2022-07-10T09:48:36;98455.59;;;23.31;53.35
58668;BME280;59852;43.086;25.634;2022-07-10T09:51:02;98452.16;;;23.44;52.45
58668;BME280;59852;43.086;25.634;2022-07-10T09:53:27;98450.41;;;23.23;53.87
58668;BME280;59852;43.086;25.634;2022-07-10T09:55:52;98443.19;;;23.17;54.32
58668;BME280;59852;43.086;25.634;2022-07-10T09:58:19;98452.84;;;23.18;53.60
58668;BME280;59852;43.086;25.634;2022-07-10T10:00:48;98453.75;;;22.97;53.86
58668;BME280;59852;43.086;25.634;2022-07-10T10:03:15;98455.03;;;23.08;53.98
58668;BME280;59852;43.086;25.634;2022-07-10T10:05:42;98444.47;;;23.21;52.58
58668;BME280;59852;43.086;25.634;2022-07-10T10:10:43;98445.34;;;23.35;51.47
58668;BME280;59852;43.086;25.634;2022-07-10T10:13:10;98443.97;;;24.00;50.54
58668;BME280;59852;43.086;25.634;2022-07-10T10:15:36;98450.56;;;24.17;49.64
58668;BME280;59852;43.086;25.634;2022-07-10T10:18:02;98439.91;;;24.57;47.74
58668;BME280;59852;43.086;25.634;2022-07-10T10:20:27;98442.19;;;24.40;49.47
58668;BME280;59852;43.086;25.634;2022-07-10T10:23:05;98438.88;;;24.58;50.02
58668;BME280;59852;43.086;25.634;2022-07-10T10:25:34;98432.84;;;23.96;48.12
58668;BME280;59852;43.086;25.634;2022-07-10T10:28:00;98443.09;;;23.86;48.82
58668;BME280;59852;43.086;25.634;2022-07-10T10:30:26;98435.50;;;23.96;48.35
58668;BME280;59852;43.086;25.634;2022-07-10T10:32:52;98437.88;;;24.39;48.44
58668;BME280;59852;43.086;25.634;2022-07-10T10:38:01;98429.44;;;24.36;49.58
58668;BME280;59852;43.086;25.634;2022-07-10T10:40:30;98433.28;;;24.13;49.60
58668;BME280;59852;43.086;25.634;2022-07-10T10:42:56;98433.47;;;24.05;49.34
58668;BME280;59852;43.086;25.634;2022-07-10T10:48:07;98419.56;;;24.69;48.65
58668;BME280;59852;43.086;25.634;2022-07-10T10:53:14;98406.25;;;25.34;47.20
58668;BME280;59852;43.086;25.634;2022-07-10T10:55:41;98406.22;;;25.47;46.32
58668;BME280;59852;43.086;25.634;2022-07-10T10:58:16;98404.13;;;25.49;46.42
58668;BME280;59852;43.086;25.634;2022-07-10T11:00:49;98411.13;;;24.66;46.92
58668;BME280;59852;43.086;25.634;2022-07-10T11:03:15;98405.59;;;24.41;48.46
58668;BME280;59852;43.086;25.634;2022-07-10T11:05:41;98405.59;;;24.34;47.24
58668;BME280;59852;43.086;25.634;2022-07-10T11:08:09;98403.94;;;24.33;48.63
58668;BME280;59852;43.086;25.634;2022-07-10T11:10:36;98397.97;;;24.38;47.51
58668;BME280;59852;43.086;25.634;2022-07-10T11:15:27;98387.88;;;24.73;47.75
58668;BME280;59852;43.086;25.634;2022-07-10T11:17:58;98383.63;;;25.30;45.49
58668;BME280;59852;43.086;25.634;2022-07-10T11:20:24;98376.41;;;25.30;44.29
58668;BME280;59852;43.086;25.634;2022-07-10T11:22:56;98377.34;;;25.49;44.75
58668;BME280;59852;43.086;25.634;2022-07-10T11:25:59;98381.03;;;25.03;45.78
58668;BME280;59852;43.086;25.634;2022-07-10T11:28:37;98379.81;;;24.86;46.79
58668;BME280;59852;43.086;25.634;2022-07-10T11:31:06;98382.09;;;24.76;47.29
58668;BME280;59852;43.086;25.634;2022-07-10T11:33:38;98370.13;;;24.85;48.61
58668;BME280;59852;43.086;25.634;2022-07-10T11:36:09;98369.78;;;24.55;49.38
58668;BME280;59852;43.086;25.634;2022-07-10T11:38:34;98384.00;;;24.42;49.42
58668;BME280;59852;43.086;25.634;2022-07-10T11:41:00;98373.88;;;24.04;50.12
58668;BME280;59852;43.086;25.634;2022-07-10T11:43:26;98374.47;;;23.80;50.76
58668;BME280;59852;43.086;25.634;2022-07-10T11:45:52;98374.28;;;24.08;50.68
58668;BME280;59852;43.086;25.634;2022-07-10T11:48:20;98365.84;;;23.98;51.88
58668;BME280;59852;43.086;25.634;2022-07-10T11:50:49;98365.25;;;23.89;51.08
58668;BME280;59852;43.086;25.634;2022-07-10T11:53:21;98366.06;;;23.90;51.91
58668;BME280;59852;43.086;25.634;2022-07-10T11:55:46;98367.28;;;23.94;51.55
58668;BME280;59852;43.086;25.634;2022-07-10T12:00:39;98359.03;;;23.69;51.38
58668;BME280;59852;43.086;25.634;2022-07-10T12:03:18;98372.81;;;23.79;50.88
58668;BME280;59852;43.086;25.634;2022-07-10T12:05:44;98364.78;;;23.79;50.63
58668;BME280;59852;43.086;25.634;2022-07-10T12:08:10;98370.97;;;23.86;50.63
58668;BME280;59852;43.086;25.634;2022-07-10T12:10:36;98370.31;;;23.64;50.71
58668;BME280;59852;43.086;25.634;2022-07-10T12:13:05;98363.19;;;23.85;50.44
58668;BME280;59852;43.086;25.634;2022-07-10T12:15:31;98372.00;;;23.79;49.55
58668;BME280;59852;43.086;25.634;2022-07-10T12:17:57;98365.25;;;23.89;49.43
58668;BME280;59852;43.086;25.634;2022-07-10T12:20:22;98364.94;;;23.51;50.61
58668;BME280;59852;43.086;25.634;2022-07-10T12:22:48;98361.78;;;23.34;51.47
58668;BME280;59852;43.086;25.634;2022-07-10T12:25:13;98365.44;;;23.27;52.89
58668;BME280;59852;43.086;25.634;2022-07-10T12:27:39;98366.34;;;22.99;54.00
58668;BME280;59852;43.086;25.634;2022-07-10T12:30:05;98380.50;;;23.00;54.63
58668;BME280;59852;43.086;25.634;2022-07-10T12:32:30;98386.72;;;22.79;55.41
58668;BME280;59852;43.086;25.634;2022-07-10T12:34:58;98380.88;;;22.90;55.39
58668;BME280;59852;43.086;25.634;2022-07-10T12:37:23;98380.50;;;22.93;54.97
58668;BME280;59852;43.086;25.634;2022-07-10T12:39:49;98372.13;;;23.03;54.38
58668;BME280;59852;43.086;25.634;2022-07-10T12:42:27;98374.00;;;22.81;54.74
58668;BME280;59852;43.086;25.634;2022-07-10T12:44:53;98377.09;;;23.12;54.92
58668;BME280;59852;43.086;25.634;2022-07-10T12:47:19;98379.72;;;23.06;55.20
58668;BME280;59852;43.086;25.634;2022-07-10T12:49:48;98380.72;;;22.70;57.03
58668;BME280;59852;43.086;25.634;2022-07-10T12:52:20;98381.94;;;22.68;57.01
58668;BME280;59852;43.086;25.634;2022-07-10T12:54:46;98369.56;;;22.60;57.01
58668;BME280;59852;43.086;25.634;2022-07-10T12:57:11;98371.47;;;22.66;56.54
58668;BME280;59852;43.086;25.634;2022-07-10T12:59:37;98379.16;;;22.82;55.74
58668;BME280;59852;43.086;25.634;2022-07-10T13:02:15;98381.75;;;22.69;55.85
58668;BME280;59852;43.086;25.634;2022-07-10T13:04:51;98374.09;;;23.35;56.28
58668;BME280;59852;43.086;25.634;2022-07-10T13:07:16;98369.19;;;23.39;54.47